createdAt,value
2018-07-14T00:01:34.974Z,3.74
2018-07-14T00:07:30.031Z,3.83
2018-07-14T00:13:24.961Z,4.93
2018-07-14T00:19:19.944Z,4.94
2018-07-14T00:25:14.996Z,6.75
2018-07-14T00:31:09.974Z,5.85
2018-07-14T00:37:05.012Z,4
2018-07-14T00:42:59.974Z,3.67
2018-07-14T00:48:54.945Z,3.65
2018-07-14T00:54:49.938Z,3.34
2018-07-14T01:00:45.059Z,3.45
2018-07-14T01:06:39.991Z,6.05
2018-07-14T01:12:35.492Z,4.47
2018-07-14T01:18:29.980Z,3.63
2018-07-14T01:24:25.013Z,3.8
2018-07-14T01:30:20.042Z,3.92
2018-07-14T01:36:15.048Z,3.96
2018-07-14T01:42:09.994Z,4.11
2018-07-14T01:48:04.981Z,4.09
2018-07-14T01:54:00.002Z,4.31
2018-07-14T01:59:55.102Z,4.2
2018-07-14T02:05:50.117Z,5.48
2018-07-14T02:11:45.137Z,4.36
2018-07-14T02:17:40.013Z,4.3
2018-07-14T02:23:35.169Z,4.16
2018-07-14T02:29:30.010Z,5.27
2018-07-14T02:35:25.035Z,4.36
2018-07-14T02:41:20.090Z,4.41
2018-07-14T02:47:15.009Z,4.67
2018-07-14T02:53:10.073Z,6.23
2018-07-14T02:59:05.014Z,4.37
2018-07-14T03:05:00.045Z,4.18
2018-07-14T03:10:55.056Z,5.13
2018-07-14T03:16:50.056Z,4.71
2018-07-14T03:22:45.072Z,7.15
2018-07-14T03:28:40.106Z,6.83
2018-07-14T03:34:35.109Z,5.55
2018-07-14T03:40:30.083Z,7.36
2018-07-14T03:46:25.128Z,5.12
2018-07-14T03:52:20.058Z,5.1
2018-07-14T03:58:15.066Z,5.18
2018-07-14T04:04:10.144Z,5.19
2018-07-14T04:10:05.145Z,5.4
2018-07-14T04:16:00.131Z,5.72
2018-07-14T04:21:55.084Z,5.15
2018-07-14T04:27:50.171Z,4.72
2018-07-14T04:33:45.119Z,5.38
2018-07-14T04:39:40.176Z,11.37
2018-07-14T04:45:35.156Z,5.29
2018-07-14T04:51:30.117Z,6.2
2018-07-14T04:57:25.114Z,7.76
2018-07-14T05:03:20.168Z,5.13
2018-07-14T05:09:15.146Z,8.44
2018-07-14T05:15:10.139Z,8.73
2018-07-14T05:21:05.162Z,8.5
2018-07-14T05:27:00.171Z,11.09
2018-07-14T05:32:55.228Z,10.56
2018-07-14T05:38:50.151Z,10.6
2018-07-14T05:44:45.174Z,12.04
2018-07-14T05:50:40.174Z,10.06
2018-07-14T05:56:35.212Z,6.52
2018-07-14T06:02:30.181Z,7.4
2018-07-14T06:08:25.189Z,11.94
2018-07-14T06:14:20.217Z,8.51
2018-07-14T06:20:15.207Z,10.25
2018-07-14T06:26:10.203Z,13.36
2018-07-14T06:32:05.260Z,8.42
2018-07-14T06:38:00.238Z,5.36
2018-07-14T06:43:55.197Z,8.94
2018-07-14T06:49:50.222Z,9.71
2018-07-14T06:55:45.222Z,5.18
2018-07-14T07:01:40.241Z,4.5
2018-07-14T07:07:35.218Z,7.28
2018-07-14T07:13:30.235Z,7.04
2018-07-14T07:19:25.292Z,7.05
2018-07-14T07:25:20.225Z,5.79
2018-07-14T07:31:15.213Z,9.33
2018-07-14T07:37:10.231Z,9.02
2018-07-14T07:43:05.239Z,8.26
2018-07-14T07:49:00.250Z,8.68
2018-07-14T07:54:55.290Z,10.07
2018-07-14T08:00:50.275Z,11.57
2018-07-14T08:06:45.291Z,6.51
2018-07-14T08:12:40.272Z,14.2
2018-07-14T08:18:35.277Z,9.85
2018-07-14T08:24:30.293Z,10.25
2018-07-14T08:30:25.292Z,6.27
2018-07-14T08:36:20.293Z,9.57
2018-07-14T08:42:15.387Z,5.99
2018-07-14T08:48:10.319Z,6.15
2018-07-14T08:54:05.325Z,16.98
2018-07-14T09:00:00.317Z,10.38
2018-07-14T09:05:55.339Z,5.57
2018-07-14T09:11:50.312Z,9.16
2018-07-14T09:17:45.303Z,7.53
2018-07-14T09:23:40.381Z,9.25
2018-07-14T09:29:35.341Z,5.8
2018-07-14T09:35:30.333Z,5.12
2018-07-14T09:41:25.328Z,4.36
2018-07-14T09:47:20.357Z,3.22
2018-07-14T09:53:15.333Z,4.3
2018-07-14T09:59:10.360Z,7.17
2018-07-14T10:05:05.428Z,3.21
2018-07-14T10:11:00.407Z,4.1
2018-07-14T10:16:55.390Z,3.49
2018-07-14T10:22:50.375Z,2.96
2018-07-14T10:28:45.412Z,5.4
2018-07-14T10:34:40.413Z,3.71
2018-07-14T10:40:35.427Z,4.75
2018-07-14T10:46:30.456Z,4.79
2018-07-14T10:52:25.450Z,5.89
2018-07-14T10:58:20.444Z,2.7
2018-07-14T11:04:15.446Z,3.07
2018-07-14T11:10:10.448Z,2.46
2018-07-14T11:16:05.460Z,2.29
2018-07-14T11:22:00.474Z,2.34
2018-07-14T11:27:55.441Z,2.01
2018-07-14T11:33:50.454Z,2.37
2018-07-14T11:39:45.450Z,4.14
2018-07-14T11:45:40.483Z,2.23
2018-07-14T11:51:35.447Z,1.92
2018-07-14T11:57:30.487Z,2.05
2018-07-14T12:03:25.545Z,2.24
2018-07-14T12:09:20.476Z,2.26
2018-07-14T12:15:15.487Z,2.26
2018-07-14T12:21:10.538Z,1.87
2018-07-14T12:27:05.508Z,4.3
2018-07-14T12:33:00.509Z,2.54
2018-07-14T12:38:55.539Z,6.11
2018-07-14T12:44:50.552Z,1.92
2018-07-14T12:50:45.557Z,2.71
2018-07-14T12:56:40.556Z,1.88
2018-07-14T13:02:35.545Z,2.54
2018-07-14T13:08:30.529Z,2.08
2018-07-14T13:14:25.538Z,2.45
2018-07-14T13:20:20.556Z,4.15
2018-07-14T13:26:15.584Z,4.11
2018-07-14T13:32:10.559Z,2.71
2018-07-14T13:38:05.576Z,2.86
2018-07-14T13:44:00.591Z,2.33
2018-07-14T13:49:55.556Z,2.37
2018-07-14T13:55:50.583Z,2.44
2018-07-14T14:01:50.825Z,4.38
2018-07-14T14:07:40.590Z,1.9
2018-07-14T14:13:35.608Z,2.21
2018-07-14T14:19:30.639Z,2.24
2018-07-14T14:25:25.602Z,2.52
2018-07-14T14:31:20.615Z,2.22
2018-07-14T14:37:15.672Z,5.49
2018-07-14T14:43:10.640Z,2.26
2018-07-14T14:49:05.650Z,2.21
2018-07-14T14:55:00.674Z,2.53
2018-07-14T15:00:55.644Z,2.16
2018-07-14T15:06:50.662Z,6.48
2018-07-14T15:12:45.659Z,3.75
2018-07-14T15:18:40.664Z,2.59
2018-07-14T15:24:35.718Z,3.85
2018-07-14T15:30:30.664Z,3.6
2018-07-14T15:36:25.675Z,2.78
2018-07-14T15:48:15.693Z,3.16
2018-07-14T15:54:10.696Z,2.89
2018-07-14T16:00:06.057Z,2.93
2018-07-14T16:06:00.741Z,3.24
2018-07-14T16:11:55.704Z,2.55
2018-07-14T16:17:50.715Z,3.42
2018-07-14T16:23:45.778Z,2.79
2018-07-14T16:29:40.747Z,2.71
2018-07-14T16:35:35.839Z,3.13
2018-07-14T16:41:30.742Z,3.77
2018-07-14T16:47:25.752Z,3.28
2018-07-14T16:53:20.765Z,3.61
2018-07-14T16:59:15.741Z,3.64
2018-07-14T17:05:10.755Z,3.54
2018-07-14T17:11:05.762Z,4.98
2018-07-14T17:17:00.792Z,6.33
2018-07-14T17:22:55.842Z,4.79
2018-07-14T17:28:50.776Z,5.07
2018-07-14T17:34:45.790Z,6.62
2018-07-14T17:40:40.806Z,4.6
2018-07-14T17:46:35.793Z,5.43
2018-07-14T17:52:30.812Z,4.26
2018-07-14T17:58:25.831Z,4.65
2018-07-14T18:04:20.826Z,6.1
2018-07-14T18:10:15.808Z,5.8
2018-07-14T18:16:10.816Z,5.81
2018-07-14T18:22:05.917Z,11.77
2018-07-14T18:28:00.832Z,15.87
2018-07-14T18:33:55.873Z,17.37
2018-07-14T18:39:50.888Z,12.13
2018-07-14T18:45:45.847Z,13.98
2018-07-14T18:51:40.861Z,36.65
2018-07-14T18:57:44.073Z,22.88
2018-07-14T19:03:35.012Z,25.08
2018-07-14T19:09:29.891Z,34.73
2018-07-14T19:15:25.018Z,75.75
2018-07-14T19:21:24.018Z,66.52
2018-07-14T19:27:10.957Z,13.65
2018-07-14T19:33:05.865Z,18.98
2018-07-14T19:39:00.918Z,8.1
2018-07-14T19:44:55.969Z,6.67
2018-07-14T19:50:50.901Z,5.3
2018-07-14T19:56:45.963Z,6.31
2018-07-14T20:02:40.944Z,5.53
2018-07-14T20:08:35.971Z,5.31
2018-07-14T20:14:30.961Z,5.88
2018-07-14T20:20:25.927Z,4.69
2018-07-14T20:26:20.918Z,5.84
2018-07-14T20:32:16.018Z,4.92
2018-07-14T20:38:10.960Z,3.9
2018-07-14T20:44:05.956Z,3.9
2018-07-14T20:50:01.015Z,6.94
2018-07-14T20:55:55.965Z,7.17
2018-07-14T21:01:50.980Z,5.7
2018-07-14T21:07:45.992Z,6.09
2018-07-14T21:13:40.994Z,4.74
2018-07-14T21:19:36.018Z,5.26
2018-07-14T21:25:30.983Z,4.58
2018-07-14T21:31:26.039Z,4.32
2018-07-14T21:37:20.991Z,4.83
2018-07-14T21:43:16.014Z,5.22
2018-07-14T21:49:11.038Z,4.63
2018-07-14T21:55:06.028Z,4.66
2018-07-14T22:01:01.157Z,6.88
2018-07-14T22:06:56.023Z,4.14
2018-07-14T22:12:51.000Z,6.7
2018-07-14T22:18:46.047Z,5.82
2018-07-14T22:24:41.085Z,4.92
2018-07-14T22:30:36.107Z,4.97
2018-07-14T22:36:31.068Z,6.97
2018-07-14T22:42:26.122Z,5.82
2018-07-14T22:48:21.106Z,6.47
2018-07-14T22:54:16.089Z,5.63
2018-07-14T23:00:11.092Z,5.3
2018-07-14T23:06:06.082Z,5.17
2018-07-14T23:12:01.075Z,5.12
2018-07-14T23:17:56.145Z,5.1
2018-07-14T23:23:51.086Z,4.67
2018-07-14T23:29:46.123Z,5.54
2018-07-14T23:35:41.092Z,4.76
2018-07-14T23:41:36.103Z,8.01
2018-07-14T23:47:31.130Z,4.72
2018-07-14T23:53:26.106Z,5.27
2018-07-14T23:59:21.132Z,5.59
